sensor_id;sensor_type;location;lat;lon;timestamp;temperature;humidity
52495;DHT22;38405;53.212;5.660;2022-09-28T00:03:32;7.80;99.90
52495;DHT22;38405;53.212;5.660;2022-09-28T00:06:03;7.80;99.90
52495;DHT22;38405;53.212;5.660;2022-09-28T00:08:29;7.80;99.90
52495;DHT22;38405;53.212;5.660;2022-09-28T00:10:55;7.80;99.90
52495;DHT22;38405;53.212;5.660;2022-09-28T00:13:21;7.80;99.90
52495;DHT22;38405;53.212;5.660;2022-09-28T00:16:04;7.80;99.90
52495;DHT22;38405;53.212;5.660;2022-09-28T00:18:31;7.80;99.90
52495;DHT22;38405;53.212;5.660;2022-09-28T00:21:02;7.90;99.90
52495;DHT22;38405;53.212;5.660;2022-09-28T00:23:28;7.80;99.90
52495;DHT22;38405;53.212;5.660;2022-09-28T00:25:54;7.90;99.90
52495;DHT22;38405;53.212;5.660;2022-09-28T00:28:20;7.80;99.90
52495;DHT22;38405;53.212;5.660;2022-09-28T00:30:45;7.80;99.90
52495;DHT22;38405;53.212;5.660;2022-09-28T00:33:11;7.80;99.90
52495;DHT22;38405;53.212;5.660;2022-09-28T00:35:36;7.90;99.90
52495;DHT22;38405;53.212;5.660;2022-09-28T00:38:02;7.80;99.90
52495;DHT22;38405;53.212;5.660;2022-09-28T00:40:28;7.90;99.90
52495;DHT22;38405;53.212;5.660;2022-09-28T00:42:54;7.90;99.90
52495;DHT22;38405;53.212;5.660;2022-09-28T00:45:21;7.90;99.90
52495;DHT22;38405;53.212;5.660;2022-09-28T00:47:53;8.10;99.90
52495;DHT22;38405;53.212;5.660;2022-09-28T00:50:29;7.90;99.90
52495;DHT22;38405;53.212;5.660;2022-09-28T00:53:10;7.80;99.90
52495;DHT22;38405;53.212;5.660;2022-09-28T00:55:56;7.80;99.90
52495;DHT22;38405;53.212;5.660;2022-09-28T00:58:27;7.80;99.90
52495;DHT22;38405;53.212;5.660;2022-09-28T01:00:55;7.70;99.90
52495;DHT22;38405;53.212;5.660;2022-09-28T01:03:23;7.70;99.90
52495;DHT22;38405;53.212;5.660;2022-09-28T01:05:50;7.70;99.90
52495;DHT22;38405;53.212;5.660;2022-09-28T01:08:18;7.70;99.90
52495;DHT22;38405;53.212;5.660;2022-09-28T01:10:46;7.60;99.90
52495;DHT22;38405;53.212;5.660;2022-09-28T01:13:14;7.80;99.90
52495;DHT22;38405;53.212;5.660;2022-09-28T01:21:21;7.70;99.90
52495;DHT22;38405;53.212;5.660;2022-09-28T01:27:44;7.50;99.90
52495;DHT22;38405;53.212;5.660;2022-09-28T01:30:07;7.60;99.90
52495;DHT22;38405;53.212;5.660;2022-09-28T01:35:40;7.50;99.90
52495;DHT22;38405;53.212;5.660;2022-09-28T01:38:47;7.50;99.90
52495;DHT22;38405;53.212;5.660;2022-09-28T01:41:06;7.40;99.90
52495;DHT22;38405;53.212;5.660;2022-09-28T01:43:36;7.40;99.90
52495;DHT22;38405;53.212;5.660;2022-09-28T01:48:42;7.40;99.90
52495;DHT22;38405;53.212;5.660;2022-09-28T01:51:21;7.40;99.90
52495;DHT22;38405;53.212;5.660;2022-09-28T01:53:52;7.30;99.90
52495;DHT22;38405;53.212;5.660;2022-09-28T01:56:29;7.30;99.90
52495;DHT22;38405;53.212;5.660;2022-09-28T01:59:14;7.20;99.90
52495;DHT22;38405;53.212;5.660;2022-09-28T02:01:45;7.20;99.90
52495;DHT22;38405;53.212;5.660;2022-09-28T02:04:48;7.20;99.90
52495;DHT22;38405;53.212;5.660;2022-09-28T02:07:23;7.10;99.90
52495;DHT22;38405;53.212;5.660;2022-09-28T02:09:59;7.10;99.90
52495;DHT22;38405;53.212;5.660;2022-09-28T02:12:39;7.40;99.90
52495;DHT22;38405;53.212;5.660;2022-09-28T02:15:11;7.10;99.90
52495;DHT22;38405;53.212;5.660;2022-09-28T02:17:39;7.20;99.90
52495;DHT22;38405;53.212;5.660;2022-09-28T02:20:06;7.20;99.90
52495;DHT22;38405;53.212;5.660;2022-09-28T02:22:44;7.20;99.90
52495;DHT22;38405;53.212;5.660;2022-09-28T02:25:29;7.10;99.90
52495;DHT22;38405;53.212;5.660;2022-09-28T02:28:04;7.10;99.90
52495;DHT22;38405;53.212;5.660;2022-09-28T02:30:34;7.10;99.90
52495;DHT22;38405;53.212;5.660;2022-09-28T02:33:23;7.00;99.90
52495;DHT22;38405;53.212;5.660;2022-09-28T02:35:51;7.00;99.90
52495;DHT22;38405;53.212;5.660;2022-09-28T02:38:16;7.00;99.90
52495;DHT22;38405;53.212;5.660;2022-09-28T02:40:46;7.20;99.90
52495;DHT22;38405;53.212;5.660;2022-09-28T02:45:55;7.00;99.90
52495;DHT22;38405;53.212;5.660;2022-09-28T02:56:51;7.00;99.90
52495;DHT22;38405;53.212;5.660;2022-09-28T02:59:34;7.00;99.90
52495;DHT22;38405;53.212;5.660;2022-09-28T03:02:12;7.10;99.90
52495;DHT22;38405;53.212;5.660;2022-09-28T03:07:25;7.00;99.90
52495;DHT22;38405;53.212;5.660;2022-09-28T03:10:00;7.40;99.90
52495;DHT22;38405;53.212;5.660;2022-09-28T03:12:28;7.00;99.90
52495;DHT22;38405;53.212;5.660;2022-09-28T03:15:13;7.10;99.90
52495;DHT22;38405;53.212;5.660;2022-09-28T03:17:43;7.10;99.90
52495;DHT22;38405;53.212;5.660;2022-09-28T03:20:09;7.10;99.90
52495;DHT22;38405;53.212;5.660;2022-09-28T03:22:35;7.10;99.90
52495;DHT22;38405;53.212;5.660;2022-09-28T03:25:01;7.40;99.90
52495;DHT22;38405;53.212;5.660;2022-09-28T03:27:27;7.10;99.90
52495;DHT22;38405;53.212;5.660;2022-09-28T03:29:53;7.10;99.90
52495;DHT22;38405;53.212;5.660;2022-09-28T03:32:19;7.20;99.90
52495;DHT22;38405;53.212;5.660;2022-09-28T03:34:44;7.20;99.90
52495;DHT22;38405;53.212;5.660;2022-09-28T03:37:10;7.20;99.90
52495;DHT22;38405;53.212;5.660;2022-09-28T03:39:35;7.20;99.90
52495;DHT22;38405;53.212;5.660;2022-09-28T03:42:01;7.30;99.90
52495;DHT22;38405;53.212;5.660;2022-09-28T03:44:27;7.30;99.90
52495;DHT22;38405;53.212;5.660;2022-09-28T03:46:52;7.20;99.90
52495;DHT22;38405;53.212;5.660;2022-09-28T03:49:18;7.30;99.90
52495;DHT22;38405;53.212;5.660;2022-09-28T03:51:44;7.30;99.90
52495;DHT22;38405;53.212;5.660;2022-09-28T03:54:09;7.30;99.90
52495;DHT22;38405;53.212;5.660;2022-09-28T03:56:35;7.30;99.90
52495;DHT22;38405;53.212;5.660;2022-09-28T03:59:04;7.30;99.90
52495;DHT22;38405;53.212;5.660;2022-09-28T04:01:30;7.40;99.90
52495;DHT22;38405;53.212;5.660;2022-09-28T04:03:55;7.40;99.90
52495;DHT22;38405;53.212;5.660;2022-09-28T04:06:22;7.70;99.90
52495;DHT22;38405;53.212;5.660;2022-09-28T04:08:48;7.40;99.90
52495;DHT22;38405;53.212;5.660;2022-09-28T04:11:13;7.70;99.90
52495;DHT22;38405;53.212;5.660;2022-09-28T04:13:39;7.50;99.90
52495;DHT22;38405;53.212;5.660;2022-09-28T04:16:05;7.50;99.90
52495;DHT22;38405;53.212;5.660;2022-09-28T04:18:31;7.50;99.90
52495;DHT22;38405;53.212;5.660;2022-09-28T04:20:59;7.50;99.90
52495;DHT22;38405;53.212;5.660;2022-09-28T04:23:26;7.50;99.90
52495;DHT22;38405;53.212;5.660;2022-09-28T04:25:52;7.50;99.90
52495;DHT22;38405;53.212;5.660;2022-09-28T04:28:18;7.50;99.90
52495;DHT22;38405;53.212;5.660;2022-09-28T04:31:02;7.60;99.90
52495;DHT22;38405;53.212;5.660;2022-09-28T04:33:28;7.80;99.90
52495;DHT22;38405;53.212;5.660;2022-09-28T04:35:53;7.60;99.90
52495;DHT22;38405;53.212;5.660;2022-09-28T04:38:19;7.70;99.90
52495;DHT22;38405;53.212;5.660;2022-09-28T04:40:48;7.70;99.90
52495;DHT22;38405;53.212;5.660;2022-09-28T04:43:14;7.70;99.90
52495;DHT22;38405;53.212;5.660;2022-09-28T04:45:39;7.70;99.90
52495;DHT22;38405;53.212;5.660;2022-09-28T04:48:05;7.70;99.90
52495;DHT22;38405;53.212;5.660;2022-09-28T04:50:32;7.70;99.90
52495;DHT22;38405;53.212;5.660;2022-09-28T04:53:00;7.80;99.90
52495;DHT22;38405;53.212;5.660;2022-09-28T04:55:26;7.70;99.90
52495;DHT22;38405;53.212;5.660;2022-09-28T04:57:57;7.70;99.90
52495;DHT22;38405;53.212;5.660;2022-09-28T05:00:29;7.80;99.90
52495;DHT22;38405;53.212;5.660;2022-09-28T05:02:57;7.80;99.90
52495;DHT22;38405;53.212;5.660;2022-09-28T05:05:23;7.80;99.90
52495;DHT22;38405;53.212;5.660;2022-09-28T05:07:49;7.90;99.90
52495;DHT22;38405;53.212;5.660;2022-09-28T05:10:14;7.90;99.90
52495;DHT22;38405;53.212;5.660;2022-09-28T05:12:40;7.90;99.90
52495;DHT22;38405;53.212;5.660;2022-09-28T05:15:06;7.90;99.90
52495;DHT22;38405;53.212;5.660;2022-09-28T05:17:31;7.90;99.90
52495;DHT22;38405;53.212;5.660;2022-09-28T05:19:57;7.90;99.90
52495;DHT22;38405;53.212;5.660;2022-09-28T05:22:23;7.90;99.90
52495;DHT22;38405;53.212;5.660;2022-09-28T05:24:49;7.90;99.90
52495;DHT22;38405;53.212;5.660;2022-09-28T05:27:14;7.90;99.90
52495;DHT22;38405;53.212;5.660;2022-09-28T05:29:40;8.00;99.90
52495;DHT22;38405;53.212;5.660;2022-09-28T05:32:05;7.80;99.90
52495;DHT22;38405;53.212;5.660;2022-09-28T05:34:31;7.80;99.90
52495;DHT22;38405;53.212;5.660;2022-09-28T05:36:57;7.80;99.90
52495;DHT22;38405;53.212;5.660;2022-09-28T05:39:22;7.80;99.90
52495;DHT22;38405;53.212;5.660;2022-09-28T05:41:48;7.70;99.90
52495;DHT22;38405;53.212;5.660;2022-09-28T05:44:14;7.70;99.90
52495;DHT22;38405;53.212;5.660;2022-09-28T05:46:39;8.10;99.90
52495;DHT22;38405;53.212;5.660;2022-09-28T05:49:05;7.60;99.90
52495;DHT22;38405;53.212;5.660;2022-09-28T05:51:30;7.60;99.90
52495;DHT22;38405;53.212;5.660;2022-09-28T05:53:56;7.50;99.90
52495;DHT22;38405;53.212;5.660;2022-09-28T05:56:22;7.50;99.90
52495;DHT22;38405;53.212;5.660;2022-09-28T05:58:47;7.50;99.90
52495;DHT22;38405;53.212;5.660;2022-09-28T06:01:13;7.50;99.90
52495;DHT22;38405;53.212;5.660;2022-09-28T06:03:39;7.50;99.90
52495;DHT22;38405;53.212;5.660;2022-09-28T06:06:04;7.40;99.90
52495;DHT22;38405;53.212;5.660;2022-09-28T06:08:31;7.40;99.90
52495;DHT22;38405;53.212;5.660;2022-09-28T06:11:00;7.50;99.90
52495;DHT22;38405;53.212;5.660;2022-09-28T06:13:26;7.40;99.90
52495;DHT22;38405;53.212;5.660;2022-09-28T06:15:52;7.50;99.90
52495;DHT22;38405;53.212;5.660;2022-09-28T06:18:18;7.50;99.90
52495;DHT22;38405;53.212;5.660;2022-09-28T06:20:44;7.50;99.90
52495;DHT22;38405;53.212;5.660;2022-09-28T06:23:11;7.60;99.90
52495;DHT22;38405;53.212;5.660;2022-09-28T06:25:37;7.60;99.90
52495;DHT22;38405;53.212;5.660;2022-09-28T06:28:06;7.60;99.90
52495;DHT22;38405;53.212;5.660;2022-09-28T06:30:33;7.60;99.90
52495;DHT22;38405;53.212;5.660;2022-09-28T06:33:02;7.70;99.90
52495;DHT22;38405;53.212;5.660;2022-09-28T06:35:29;7.80;99.90
52495;DHT22;38405;53.212;5.660;2022-09-28T06:37:55;7.70;99.90
52495;DHT22;38405;53.212;5.660;2022-09-28T06:40:22;7.80;99.90
52495;DHT22;38405;53.212;5.660;2022-09-28T06:43:10;7.90;99.90
52495;DHT22;38405;53.212;5.660;2022-09-28T06:45:37;7.90;99.90
52495;DHT22;38405;53.212;5.660;2022-09-28T06:48:03;8.10;99.90
52495;DHT22;38405;53.212;5.660;2022-09-28T06:50:35;8.20;99.90
52495;DHT22;38405;53.212;5.660;2022-09-28T06:53:02;8.00;99.90
52495;DHT22;38405;53.212;5.660;2022-09-28T06:55:29;8.10;99.90
52495;DHT22;38405;53.212;5.660;2022-09-28T06:58:05;8.10;99.90
52495;DHT22;38405;53.212;5.660;2022-09-28T07:00:33;8.20;99.90
52495;DHT22;38405;53.212;5.660;2022-09-28T07:03:00;8.40;99.90
52495;DHT22;38405;53.212;5.660;2022-09-28T07:05:26;9.40;99.90
52495;DHT22;38405;53.212;5.660;2022-09-28T07:07:56;11.10;99.90
52495;DHT22;38405;53.212;5.660;2022-09-28T07:10:26;12.60;99.90
52495;DHT22;38405;53.212;5.660;2022-09-28T07:12:53;13.90;99.90
52495;DHT22;38405;53.212;5.660;2022-09-28T07:15:19;15.30;99.90
52495;DHT22;38405;53.212;5.660;2022-09-28T07:17:46;16.40;99.90
52495;DHT22;38405;53.212;5.660;2022-09-28T07:20:12;17.40;99.90
52495;DHT22;38405;53.212;5.660;2022-09-28T07:22:38;18.40;99.90
52495;DHT22;38405;53.212;5.660;2022-09-28T07:25:08;19.30;99.90
52495;DHT22;38405;53.212;5.660;2022-09-28T07:27:34;20.20;99.90
52495;DHT22;38405;53.212;5.660;2022-09-28T07:30:04;21.00;99.90
52495;DHT22;38405;53.212;5.660;2022-09-28T07:32:30;21.70;99.90
52495;DHT22;38405;53.212;5.660;2022-09-28T07:34:58;22.50;99.90
52495;DHT22;38405;53.212;5.660;2022-09-28T07:37:24;23.30;99.90
52495;DHT22;38405;53.212;5.660;2022-09-28T07:39:51;23.70;99.90
52495;DHT22;38405;53.212;5.660;2022-09-28T07:42:55;24.20;99.90
52495;DHT22;38405;53.212;5.660;2022-09-28T07:45:20;24.70;99.90
52495;DHT22;38405;53.212;5.660;2022-09-28T07:47:53;25.30;99.90
52495;DHT22;38405;53.212;5.660;2022-09-28T07:50:19;25.80;99.90
52495;DHT22;38405;53.212;5.660;2022-09-28T07:52:45;26.20;99.90
52495;DHT22;38405;53.212;5.660;2022-09-28T07:55:11;26.70;99.90
52495;DHT22;38405;53.212;5.660;2022-09-28T07:57:37;27.10;99.90
52495;DHT22;38405;53.212;5.660;2022-09-28T08:00:04;27.40;99.90
52495;DHT22;38405;53.212;5.660;2022-09-28T08:02:31;27.80;99.90
52495;DHT22;38405;53.212;5.660;2022-09-28T08:04:59;28.20;99.90
52495;DHT22;38405;53.212;5.660;2022-09-28T08:07:24;28.50;99.90
52495;DHT22;38405;53.212;5.660;2022-09-28T08:09:50;28.80;99.90
52495;DHT22;38405;53.212;5.660;2022-09-28T08:12:16;28.70;99.90
52495;DHT22;38405;53.212;5.660;2022-09-28T08:14:44;28.70;99.90
52495;DHT22;38405;53.212;5.660;2022-09-28T08:17:10;28.40;99.90
52495;DHT22;38405;53.212;5.660;2022-09-28T08:19:35;27.90;99.70
52495;DHT22;38405;53.212;5.660;2022-09-28T08:22:20;27.50;98.80
52495;DHT22;38405;53.212;5.660;2022-09-28T08:24:46;26.80;98.80
52495;DHT22;38405;53.212;5.660;2022-09-28T08:27:13;26.80;99.00
52495;DHT22;38405;53.212;5.660;2022-09-28T08:29:39;26.90;98.90
52495;DHT22;38405;53.212;5.660;2022-09-28T08:32:06;26.70;98.10
52495;DHT22;38405;53.212;5.660;2022-09-28T08:34:39;26.60;97.70
52495;DHT22;38405;53.212;5.660;2022-09-28T08:37:06;26.90;97.40
52495;DHT22;38405;53.212;5.660;2022-09-28T08:39:34;26.20;97.00
52495;DHT22;38405;53.212;5.660;2022-09-28T08:44:59;24.30;94.60
52495;DHT22;38405;53.212;5.660;2022-09-28T08:47:50;23.40;97.00
52495;DHT22;38405;53.212;5.660;2022-09-28T08:50:50;23.10;95.00
52495;DHT22;38405;53.212;5.660;2022-09-28T08:53:39;22.60;97.90
52495;DHT22;38405;53.212;5.660;2022-09-28T08:56:14;21.70;95.60
52495;DHT22;38405;53.212;5.660;2022-09-28T08:58:44;21.10;99.50
52495;DHT22;38405;53.212;5.660;2022-09-28T09:01:15;20.90;99.90
52495;DHT22;38405;53.212;5.660;2022-09-28T09:03:43;20.60;98.60
52495;DHT22;38405;53.212;5.660;2022-09-28T09:14:31;20.90;99.90
52495;DHT22;38405;53.212;5.660;2022-09-28T09:20:14;21.00;99.90
52495;DHT22;38405;53.212;5.660;2022-09-28T09:22:57;20.80;97.60
52495;DHT22;38405;53.212;5.660;2022-09-28T09:25:48;20.90;97.20
52495;DHT22;38405;53.212;5.660;2022-09-28T09:31:05;21.00;99.90
52495;DHT22;38405;53.212;5.660;2022-09-28T09:44:48;20.50;98.60
52495;DHT22;38405;53.212;5.660;2022-09-28T09:47:29;20.70;98.80
52495;DHT22;38405;53.212;5.660;2022-09-28T09:53:29;21.10;99.30
52495;DHT22;38405;53.212;5.660;2022-09-28T09:56:00;21.40;96.90
52495;DHT22;38405;53.212;5.660;2022-09-28T09:58:42;21.50;99.20
52495;DHT22;38405;53.212;5.660;2022-09-28T10:01:16;21.60;98.30
52495;DHT22;38405;53.212;5.660;2022-09-28T10:03:44;21.80;99.50
52495;DHT22;38405;53.212;5.660;2022-09-28T10:06:20;21.90;99.20
52495;DHT22;38405;53.212;5.660;2022-09-28T10:09:00;21.80;98.60
52495;DHT22;38405;53.212;5.660;2022-09-28T10:11:30;21.30;97.60
52495;DHT22;38405;53.212;5.660;2022-09-28T10:13:58;20.70;98.80
52495;DHT22;38405;53.212;5.660;2022-09-28T10:16:24;20.40;99.20
52495;DHT22;38405;53.212;5.660;2022-09-28T10:18:49;20.50;99.50
52495;DHT22;38405;53.212;5.660;2022-09-28T10:21:18;20.70;99.10
52495;DHT22;38405;53.212;5.660;2022-09-28T10:23:47;20.80;98.40
52495;DHT22;38405;53.212;5.660;2022-09-28T10:26:18;21.10;98.10
52495;DHT22;38405;53.212;5.660;2022-09-28T10:29:00;21.30;98.00
52495;DHT22;38405;53.212;5.660;2022-09-28T10:31:46;21.30;97.50
52495;DHT22;38405;53.212;5.660;2022-09-28T10:34:17;21.20;97.00
52495;DHT22;38405;53.212;5.660;2022-09-28T10:36:51;20.90;99.00
52495;DHT22;38405;53.212;5.660;2022-09-28T10:39:36;20.80;96.90
52495;DHT22;38405;53.212;5.660;2022-09-28T10:42:10;20.50;97.00
52495;DHT22;38405;53.212;5.660;2022-09-28T10:47:22;20.00;97.70
52495;DHT22;38405;53.212;5.660;2022-09-28T10:49:49;20.20;99.00
52495;DHT22;38405;53.212;5.660;2022-09-28T10:52:31;20.60;99.30
52495;DHT22;38405;53.212;5.660;2022-09-28T10:54:57;21.10;98.40
52495;DHT22;38405;53.212;5.660;2022-09-28T10:57:33;21.10;99.40
52495;DHT22;38405;53.212;5.660;2022-09-28T10:59:59;20.70;98.90
52495;DHT22;38405;53.212;5.660;2022-09-28T11:02:31;20.10;99.10
52495;DHT22;38405;53.212;5.660;2022-09-28T11:04:59;19.50;99.00
52495;DHT22;38405;53.212;5.660;2022-09-28T11:07:28;19.00;99.90
52495;DHT22;38405;53.212;5.660;2022-09-28T11:09:55;18.80;99.90
52495;DHT22;38405;53.212;5.660;2022-09-28T11:12:32;18.40;99.90
52495;DHT22;38405;53.212;5.660;2022-09-28T11:15:05;18.00;99.90
52495;DHT22;38405;53.212;5.660;2022-09-28T11:20:20;18.20;99.90
52495;DHT22;38405;53.212;5.660;2022-09-28T11:22:48;18.30;99.90
52495;DHT22;38405;53.212;5.660;2022-09-28T11:25:23;18.50;99.90
52495;DHT22;38405;53.212;5.660;2022-09-28T11:30:30;19.20;99.90
52495;DHT22;38405;53.212;5.660;2022-09-28T11:33:09;19.40;99.60
52495;DHT22;38405;53.212;5.660;2022-09-28T11:35:41;19.20;99.10
52495;DHT22;38405;53.212;5.660;2022-09-28T11:44:03;17.50;99.90
52495;DHT22;38405;53.212;5.660;2022-09-28T11:51:45;16.60;99.90
52495;DHT22;38405;53.212;5.660;2022-09-28T11:54:29;16.30;99.90
52495;DHT22;38405;53.212;5.660;2022-09-28T11:57:00;16.20;99.90
52495;DHT22;38405;53.212;5.660;2022-09-28T11:59:56;16.30;99.90
52495;DHT22;38405;53.212;5.660;2022-09-28T12:02:31;16.30;99.90
52495;DHT22;38405;53.212;5.660;2022-09-28T12:05:12;16.30;99.90
52495;DHT22;38405;53.212;5.660;2022-09-28T12:07:48;16.50;99.90
52495;DHT22;38405;53.212;5.660;2022-09-28T12:24:31;17.90;99.90
52495;DHT22;38405;53.212;5.660;2022-09-28T12:27:19;17.80;99.90
52495;DHT22;38405;53.212;5.660;2022-09-28T12:29:54;17.60;99.90
52495;DHT22;38405;53.212;5.660;2022-09-28T12:32:29;17.60;99.90
52495;DHT22;38405;53.212;5.660;2022-09-28T12:34:56;17.40;99.90
52495;DHT22;38405;53.212;5.660;2022-09-28T12:40:50;17.30;99.90
52495;DHT22;38405;53.212;5.660;2022-09-28T12:44:28;17.10;99.90
52495;DHT22;38405;53.212;5.660;2022-09-28T12:49:00;17.00;99.90
52495;DHT22;38405;53.212;5.660;2022-09-28T12:51:48;16.90;99.90
52495;DHT22;38405;53.212;5.660;2022-09-28T13:13:30;16.30;99.90
52495;DHT22;38405;53.212;5.660;2022-09-28T13:18:51;16.00;99.90
52495;DHT22;38405;53.212;5.660;2022-09-28T13:21:28;16.00;99.90
52495;DHT22;38405;53.212;5.660;2022-09-28T13:23:58;16.00;99.90
52495;DHT22;38405;53.212;5.660;2022-09-28T13:26:35;16.00;99.90
52495;DHT22;38405;53.212;5.660;2022-09-28T13:29:10;16.00;99.90
52495;DHT22;38405;53.212;5.660;2022-09-28T13:31:46;15.90;99.90
52495;DHT22;38405;53.212;5.660;2022-09-28T13:34:17;15.90;99.90
52495;DHT22;38405;53.212;5.660;2022-09-28T13:36:45;16.00;99.90
52495;DHT22;38405;53.212;5.660;2022-09-28T13:56:02;15.70;99.90
52495;DHT22;38405;53.212;5.660;2022-09-28T13:59:17;15.70;99.90
52495;DHT22;38405;53.212;5.660;2022-09-28T14:01:29;15.70;99.90
52495;DHT22;38405;53.212;5.660;2022-09-28T14:06:42;15.60;99.90
52495;DHT22;38405;53.212;5.660;2022-09-28T14:11:57;15.60;99.90
52495;DHT22;38405;53.212;5.660;2022-09-28T14:14:30;15.60;99.90
52495;DHT22;38405;53.212;5.660;2022-09-28T14:25:42;15.60;99.90
52495;DHT22;38405;53.212;5.660;2022-09-28T14:28:47;15.50;99.90
52495;DHT22;38405;53.212;5.660;2022-09-28T14:31:28;15.50;99.90
52495;DHT22;38405;53.212;5.660;2022-09-28T14:33:57;15.50;99.90
52495;DHT22;38405;53.212;5.660;2022-09-28T14:36:34;15.50;99.90
52495;DHT22;38405;53.212;5.660;2022-09-28T14:39:25;15.50;99.90
52495;DHT22;38405;53.212;5.660;2022-09-28T14:42:21;15.60;99.90
52495;DHT22;38405;53.212;5.660;2022-09-28T14:48:04;15.70;99.90
52495;DHT22;38405;53.212;5.660;2022-09-28T14:50:35;15.60;99.90
52495;DHT22;38405;53.212;5.660;2022-09-28T14:53:05;15.60;99.90
52495;DHT22;38405;53.212;5.660;2022-09-28T14:55:49;15.60;99.90
52495;DHT22;38405;53.212;5.660;2022-09-28T14:58:20;15.60;99.90
52495;DHT22;38405;53.212;5.660;2022-09-28T15:00:48;15.50;99.90
52495;DHT22;38405;53.212;5.660;2022-09-28T15:03:14;15.50;99.90
52495;DHT22;38405;53.212;5.660;2022-09-28T15:05:43;15.50;99.90
52495;DHT22;38405;53.212;5.660;2022-09-28T15:08:11;15.50;99.90
52495;DHT22;38405;53.212;5.660;2022-09-28T15:10:39;15.50;99.90
52495;DHT22;38405;53.212;5.660;2022-09-28T15:13:23;15.50;99.90
52495;DHT22;38405;53.212;5.660;2022-09-28T15:15:56;15.50;99.90
52495;DHT22;38405;53.212;5.660;2022-09-28T15:21:11;15.40;99.90
52495;DHT22;38405;53.212;5.660;2022-09-28T15:23:42;15.30;99.90
52495;DHT22;38405;53.212;5.660;2022-09-28T15:26:28;15.30;99.90
52495;DHT22;38405;53.212;5.660;2022-09-28T15:28:55;15.30;99.90
52495;DHT22;38405;53.212;5.660;2022-09-28T15:31:23;15.30;99.90
52495;DHT22;38405;53.212;5.660;2022-09-28T15:33:50;15.20;99.90
52495;DHT22;38405;53.212;5.660;2022-09-28T15:36:38;15.10;99.90
52495;DHT22;38405;53.212;5.660;2022-09-28T15:41:36;14.90;99.90
52495;DHT22;38405;53.212;5.660;2022-09-28T15:46:48;14.70;99.90
52495;DHT22;38405;53.212;5.660;2022-09-28T15:51:59;14.60;99.90
52495;DHT22;38405;53.212;5.660;2022-09-28T15:54:30;14.50;99.90
52495;DHT22;38405;53.212;5.660;2022-09-28T15:57:01;14.50;99.90
52495;DHT22;38405;53.212;5.660;2022-09-28T15:59:34;14.40;99.90
52495;DHT22;38405;53.212;5.660;2022-09-28T16:02:09;14.30;99.90
52495;DHT22;38405;53.212;5.660;2022-09-28T16:12:50;13.90;99.90
52495;DHT22;38405;53.212;5.660;2022-09-28T16:15:25;13.80;99.90
52495;DHT22;38405;53.212;5.660;2022-09-28T16:18:13;13.70;99.90
52495;DHT22;38405;53.212;5.660;2022-09-28T16:20:45;13.70;99.90
52495;DHT22;38405;53.212;5.660;2022-09-28T16:25:55;13.50;99.90
52495;DHT22;38405;53.212;5.660;2022-09-28T16:33:39;13.30;99.90
52495;DHT22;38405;53.212;5.660;2022-09-28T16:36:15;13.10;99.90
52495;DHT22;38405;53.212;5.660;2022-09-28T16:38:45;13.20;99.90
52495;DHT22;38405;53.212;5.660;2022-09-28T16:41:11;13.10;99.90
52495;DHT22;38405;53.212;5.660;2022-09-28T16:43:38;13.10;99.90
52495;DHT22;38405;53.212;5.660;2022-09-28T16:46:10;13.00;99.90
52495;DHT22;38405;53.212;5.660;2022-09-28T16:48:43;12.90;99.90
52495;DHT22;38405;53.212;5.660;2022-09-28T16:51:21;12.80;99.90
52495;DHT22;38405;53.212;5.660;2022-09-28T16:53:48;12.70;99.90
52495;DHT22;38405;53.212;5.660;2022-09-28T16:56:33;12.60;99.90
52495;DHT22;38405;53.212;5.660;2022-09-28T16:59:00;12.50;99.90
52495;DHT22;38405;53.212;5.660;2022-09-28T17:01:27;12.40;99.90
52495;DHT22;38405;53.212;5.660;2022-09-28T17:03:54;12.30;99.90
52495;DHT22;38405;53.212;5.660;2022-09-28T17:06:21;12.20;99.90
52495;DHT22;38405;53.212;5.660;2022-09-28T17:08:51;12.10;99.90
52495;DHT22;38405;53.212;5.660;2022-09-28T17:11:18;12.00;99.90
52495;DHT22;38405;53.212;5.660;2022-09-28T17:13:44;11.80;99.90
52495;DHT22;38405;53.212;5.660;2022-09-28T17:16:19;11.70;99.90
52495;DHT22;38405;53.212;5.660;2022-09-28T17:18:46;11.60;99.90
52495;DHT22;38405;53.212;5.660;2022-09-28T17:21:18;11.50;99.90
52495;DHT22;38405;53.212;5.660;2022-09-28T17:23:46;11.40;99.90
52495;DHT22;38405;53.212;5.660;2022-09-28T17:26:25;11.20;99.90
52495;DHT22;38405;53.212;5.660;2022-09-28T17:28:53;11.10;99.90
52495;DHT22;38405;53.212;5.660;2022-09-28T17:31:19;11.00;99.90
52495;DHT22;38405;53.212;5.660;2022-09-28T17:33:45;10.90;99.90
52495;DHT22;38405;53.212;5.660;2022-09-28T17:36:15;10.90;99.90
52495;DHT22;38405;53.212;5.660;2022-09-28T17:38:42;10.70;99.90
52495;DHT22;38405;53.212;5.660;2022-09-28T17:41:13;10.60;99.90
52495;DHT22;38405;53.212;5.660;2022-09-28T17:43:39;10.50;99.90
52495;DHT22;38405;53.212;5.660;2022-09-28T17:46:27;10.40;99.90
52495;DHT22;38405;53.212;5.660;2022-09-28T17:48:54;10.40;99.90
52495;DHT22;38405;53.212;5.660;2022-09-28T17:51:21;10.30;99.90
52495;DHT22;38405;53.212;5.660;2022-09-28T17:53:48;10.30;99.90
52495;DHT22;38405;53.212;5.660;2022-09-28T17:56:14;10.20;99.90
52495;DHT22;38405;53.212;5.660;2022-09-28T17:58:39;10.10;99.90
52495;DHT22;38405;53.212;5.660;2022-09-28T18:01:05;10.10;99.90
52495;DHT22;38405;53.212;5.660;2022-09-28T18:03:30;10.00;99.90
52495;DHT22;38405;53.212;5.660;2022-09-28T18:06:10;9.90;99.90
52495;DHT22;38405;53.212;5.660;2022-09-28T18:08:38;9.90;99.90
52495;DHT22;38405;53.212;5.660;2022-09-28T18:11:04;9.90;99.90
52495;DHT22;38405;53.212;5.660;2022-09-28T18:13:30;9.80;99.90
52495;DHT22;38405;53.212;5.660;2022-09-28T18:15:56;9.80;99.90
52495;DHT22;38405;53.212;5.660;2022-09-28T18:18:22;9.70;99.90
52495;DHT22;38405;53.212;5.660;2022-09-28T18:20:49;9.70;99.90
52495;DHT22;38405;53.212;5.660;2022-09-28T18:23:15;9.60;99.90
52495;DHT22;38405;53.212;5.660;2022-09-28T18:25:42;9.50;99.90
52495;DHT22;38405;53.212;5.660;2022-09-28T18:28:08;9.50;99.90
52495;DHT22;38405;53.212;5.660;2022-09-28T18:30:41;9.40;99.90
52495;DHT22;38405;53.212;5.660;2022-09-28T18:33:07;9.30;99.90
52495;DHT22;38405;53.212;5.660;2022-09-28T18:35:33;9.30;99.90
52495;DHT22;38405;53.212;5.660;2022-09-28T18:37:59;9.20;99.90
52495;DHT22;38405;53.212;5.660;2022-09-28T18:40:25;9.20;99.90
52495;DHT22;38405;53.212;5.660;2022-09-28T18:42:51;9.10;99.90
52495;DHT22;38405;53.212;5.660;2022-09-28T18:45:17;9.10;99.90
52495;DHT22;38405;53.212;5.660;2022-09-28T18:47:44;9.00;99.90
52495;DHT22;38405;53.212;5.660;2022-09-28T18:50:11;8.90;99.90
52495;DHT22;38405;53.212;5.660;2022-09-28T18:52:38;8.90;99.90
52495;DHT22;38405;53.212;5.660;2022-09-28T18:55:05;8.90;99.90
52495;DHT22;38405;53.212;5.660;2022-09-28T18:57:31;8.80;99.90
52495;DHT22;38405;53.212;5.660;2022-09-28T18:59:58;8.80;99.90
52495;DHT22;38405;53.212;5.660;2022-09-28T19:02:24;8.80;99.90
52495;DHT22;38405;53.212;5.660;2022-09-28T19:04:50;8.70;99.90